createdAt,value
2023-02-15T00:00:21.194Z,34.23
2023-02-15T00:02:49.489Z,32.30
2023-02-15T00:05:17.992Z,32.70
2023-02-15T00:07:46.309Z,32.83
2023-02-15T00:10:15.135Z,33.00
2023-02-15T00:12:43.967Z,31.27
2023-02-15T00:15:14.117Z,30.43
2023-02-15T00:17:42.454Z,31.83
2023-02-15T00:20:11.991Z,30.40
2023-02-15T00:22:40.259Z,30.63
2023-02-15T00:25:08.947Z,29.93
2023-02-15T00:27:37.223Z,32.30
2023-02-15T00:30:07.019Z,31.70
2023-02-15T00:32:36.879Z,29.93
2023-02-15T00:35:05.356Z,30.93
2023-02-15T00:37:33.619Z,28.37
2023-02-15T00:40:05.550Z,29.53
2023-02-15T00:42:34.237Z,29.20
2023-02-15T00:45:02.483Z,31.07
2023-02-15T00:47:30.765Z,29.63
2023-02-15T00:50:00.413Z,29.33
2023-02-15T00:52:28.709Z,29.03
2023-02-15T00:54:57.910Z,30.10
2023-02-15T00:57:26.173Z,28.17
2023-02-15T00:59:54.489Z,27.30
2023-02-15T01:02:22.885Z,29.53
2023-02-15T01:04:51.141Z,27.20
2023-02-15T01:07:20.861Z,27.53
2023-02-15T01:09:49.185Z,26.23
2023-02-15T01:12:17.444Z,26.40
2023-02-15T01:14:45.779Z,26.90
2023-02-15T01:17:14.032Z,26.63
2023-02-15T01:19:42.319Z,26.67
2023-02-15T01:22:10.667Z,27.47
2023-02-15T01:24:40.303Z,26.50
2023-02-15T01:27:08.974Z,27.67
2023-02-15T01:29:37.245Z,27.63
2023-02-15T01:32:05.935Z,26.60
2023-02-15T01:34:34.493Z,27.87
2023-02-15T01:37:02.832Z,27.23
2023-02-15T01:39:31.130Z,27.10
2023-02-15T01:42:00.837Z,27.60
2023-02-15T01:44:51.376Z,27.60
2023-02-15T01:50:02.500Z,27.73
2023-02-15T01:52:31.985Z,28.37
2023-02-15T01:55:00.464Z,27.57
2023-02-15T01:57:30.974Z,26.93
2023-02-15T02:00:02.164Z,25.23
2023-02-15T02:02:41.779Z,25.33
2023-02-15T02:05:10.282Z,25.47
2023-02-15T02:07:41.992Z,25.23
2023-02-15T02:10:14.566Z,26.23
2023-02-15T02:12:47.422Z,25.90
2023-02-15T02:15:16.577Z,25.23
2023-02-15T02:17:55.419Z,24.37
2023-02-15T02:20:43.047Z,24.87
2023-02-15T02:23:33.932Z,25.17
2023-02-15T02:26:34.517Z,25.40
2023-02-15T02:29:29.249Z,24.13
2023-02-15T02:32:25.125Z,24.37
2023-02-15T02:35:02.122Z,23.20
2023-02-15T02:37:39.714Z,23.30
2023-02-15T02:40:15.349Z,23.17
2023-02-15T02:42:46.680Z,22.97
2023-02-15T02:45:18.861Z,20.63
2023-02-15T02:47:52.468Z,20.77
2023-02-15T02:50:26.304Z,20.40
2023-02-15T02:52:56.119Z,19.97
2023-02-15T02:55:30.855Z,19.60
2023-02-15T02:58:07.186Z,18.70
2023-02-15T03:00:41.313Z,16.70
2023-02-15T03:03:16.037Z,17.83
2023-02-15T03:05:49.285Z,17.60
2023-02-15T03:08:23.057Z,16.90
2023-02-15T03:10:56.234Z,15.70
2023-02-15T03:13:25.801Z,16.23
2023-02-15T03:16:13.512Z,17.40
2023-02-15T03:18:53.772Z,16.73
2023-02-15T03:21:28.211Z,16.93
2023-02-15T03:24:03.159Z,16.50
2023-02-15T03:26:32.674Z,16.43
2023-02-15T03:29:04.934Z,16.77
2023-02-15T03:31:37.902Z,16.67
2023-02-15T03:34:09.695Z,16.50
2023-02-15T03:36:45.809Z,16.80
2023-02-15T03:39:21.149Z,16.37
2023-02-15T03:41:57.503Z,15.33
2023-02-15T03:44:31.323Z,14.70
2023-02-15T03:47:06.350Z,15.70
2023-02-15T03:49:41.613Z,14.73
2023-02-15T03:52:13.793Z,14.57
2023-02-15T03:54:46.817Z,14.10
2023-02-15T03:57:35.550Z,14.50
2023-02-15T04:00:24.582Z,14.63
2023-02-15T04:03:14.602Z,13.80
2023-02-15T04:05:44.507Z,14.30
2023-02-15T04:08:14.767Z,14.20
2023-02-15T04:10:54.368Z,14.00
2023-02-15T04:13:23.750Z,14.30
2023-02-15T04:16:07.637Z,13.97
2023-02-15T04:18:57.557Z,14.63
2023-02-15T04:21:45.582Z,14.50
2023-02-15T04:24:33.460Z,13.73
2023-02-15T04:27:02.177Z,14.30
2023-02-15T04:29:31.028Z,13.73
2023-02-15T04:32:00.489Z,14.33
2023-02-15T04:34:28.842Z,15.00
2023-02-15T04:36:57.490Z,14.60
2023-02-15T04:39:27.120Z,14.47
2023-02-15T04:41:55.375Z,15.20
2023-02-15T04:44:23.655Z,14.67
2023-02-15T04:46:51.968Z,14.73
2023-02-15T04:49:20.169Z,15.20
2023-02-15T04:51:48.502Z,16.03
2023-02-15T04:54:16.754Z,14.60
2023-02-15T04:56:46.401Z,15.77
2023-02-15T04:59:15.031Z,17.70
2023-02-15T05:01:43.680Z,16.33
2023-02-15T05:04:12.267Z,15.97
2023-02-15T05:06:40.623Z,16.07
2023-02-15T05:09:08.916Z,17.43
2023-02-15T05:11:37.228Z,15.63
2023-02-15T05:14:07.003Z,16.43
2023-02-15T05:16:35.888Z,16.37
2023-02-15T05:19:04.555Z,16.50
2023-02-15T05:21:33.371Z,16.87
2023-02-15T05:24:01.629Z,16.03
2023-02-15T05:26:47.612Z,18.23
2023-02-15T05:29:17.273Z,18.67
2023-02-15T05:31:48.400Z,18.53
2023-02-15T05:34:16.926Z,17.73
2023-02-15T05:36:45.144Z,18.27
2023-02-15T05:39:13.477Z,17.77
2023-02-15T05:41:41.667Z,17.83
2023-02-15T05:44:09.935Z,18.50
2023-02-15T05:46:39.623Z,19.03
2023-02-15T05:49:07.860Z,18.87
2023-02-15T05:51:36.126Z,19.23
2023-02-15T05:54:04.446Z,20.17
2023-02-15T05:56:32.691Z,20.30
2023-02-15T05:59:00.959Z,20.63
2023-02-15T06:01:29.290Z,21.03
2023-02-15T06:03:58.892Z,21.23
2023-02-15T06:06:27.214Z,21.17
2023-02-15T06:08:55.543Z,21.40
2023-02-15T06:11:23.758Z,20.87
2023-02-15T06:13:52.214Z,20.90
2023-02-15T06:16:20.515Z,20.40
2023-02-15T06:18:48.758Z,19.73
2023-02-15T06:21:18.670Z,19.97
2023-02-15T06:23:46.890Z,19.80
2023-02-15T06:26:15.172Z,20.07
2023-02-15T06:28:43.502Z,20.03
2023-02-15T06:31:11.824Z,20.67
2023-02-15T06:33:40.386Z,19.87
2023-02-15T06:36:08.983Z,19.03
2023-02-15T06:38:38.594Z,19.87
2023-02-15T06:41:06.855Z,21.93
2023-02-15T06:43:35.305Z,20.30
2023-02-15T06:46:03.892Z,20.87
2023-02-15T06:48:32.375Z,21.53
2023-02-15T06:51:00.684Z,22.87
2023-02-15T06:53:28.909Z,21.17
2023-02-15T06:56:07.444Z,23.13
2023-02-15T06:58:35.836Z,23.70
2023-02-15T07:01:04.562Z,22.87
2023-02-15T07:03:33.165Z,24.40
2023-02-15T07:06:03.243Z,24.73
2023-02-15T07:08:31.977Z,23.83
2023-02-15T07:11:20.651Z,25.53
2023-02-15T07:13:49.344Z,27.10
2023-02-15T07:16:17.658Z,31.03
2023-02-15T07:18:46.101Z,29.70
2023-02-15T07:21:14.493Z,28.83
2023-02-15T07:23:43.192Z,30.07
2023-02-15T07:26:11.488Z,31.27
2023-02-15T07:28:39.718Z,29.87
2023-02-15T07:31:09.502Z,31.90
2023-02-15T07:33:38.072Z,34.33
2023-02-15T07:36:07.308Z,36.37
2023-02-15T07:38:37.632Z,39.10
2023-02-15T07:41:07.805Z,41.20
2023-02-15T07:43:38.080Z,40.77
2023-02-15T07:46:08.621Z,41.33
2023-02-15T07:48:39.267Z,40.90
2023-02-15T07:51:10.048Z,39.30
2023-02-15T07:53:39.117Z,41.93
2023-02-15T07:56:10.010Z,40.37
2023-02-15T07:58:53.605Z,42.00
2023-02-15T08:01:24.230Z,40.87
2023-02-15T08:03:54.576Z,42.30
2023-02-15T08:06:23.851Z,43.10
2023-02-15T08:08:52.359Z,43.77
2023-02-15T08:11:30.351Z,42.90
2023-02-15T08:14:01.103Z,43.20
2023-02-15T08:16:32.780Z,40.97
2023-02-15T08:19:04.726Z,43.00
2023-02-15T08:21:34.144Z,45.30
2023-02-15T08:24:03.124Z,44.80
2023-02-15T08:26:32.797Z,43.57
2023-02-15T08:29:02.076Z,41.83
2023-02-15T08:31:31.288Z,42.10
2023-02-15T08:34:00.028Z,40.87
2023-02-15T08:36:32.533Z,40.47
2023-02-15T08:39:02.572Z,37.73
2023-02-15T08:41:33.143Z,35.03
2023-02-15T08:44:02.980Z,35.87
2023-02-15T08:46:34.096Z,34.30
2023-02-15T08:49:02.990Z,34.57
2023-02-15T08:51:34.815Z,32.00
2023-02-15T08:54:05.395Z,32.20
2023-02-15T08:56:36.560Z,30.67
2023-02-15T08:59:05.393Z,28.80
2023-02-15T09:01:35.675Z,27.55
2023-02-15T09:04:06.380Z,28.92
2023-02-15T09:06:36.017Z,26.63
2023-02-15T09:09:04.806Z,25.48
2023-02-15T09:11:35.901Z,26.10
2023-02-15T09:14:06.812Z,26.45
2023-02-15T09:16:37.101Z,26.15
2023-02-15T09:19:06.131Z,25.58
2023-02-15T09:21:38.180Z,26.83
2023-02-15T09:24:08.642Z,25.17
2023-02-15T09:26:40.411Z,25.55
2023-02-15T09:29:09.388Z,25.13
2023-02-15T09:31:42.572Z,25.38
2023-02-15T09:34:10.841Z,24.95
2023-02-15T09:36:42.941Z,25.52
2023-02-15T09:39:13.699Z,25.17
2023-02-15T09:42:16.423Z,25.90
2023-02-15T09:45:04.489Z,24.42
2023-02-15T09:47:51.424Z,24.95
2023-02-15T09:50:28.760Z,25.13
2023-02-15T09:53:14.543Z,23.33
2023-02-15T09:55:53.413Z,25.30
2023-02-15T09:58:32.907Z,25.27
2023-02-15T10:01:08.414Z,25.08
2023-02-15T10:03:44.953Z,25.75
2023-02-15T10:06:34.584Z,26.15
2023-02-15T10:09:19.212Z,25.75
2023-02-15T10:11:59.177Z,25.73
2023-02-15T10:14:45.456Z,26.45
2023-02-15T10:17:25.539Z,25.80
2023-02-15T10:20:06.856Z,27.50
2023-02-15T10:22:48.016Z,25.70
2023-02-15T10:25:31.825Z,25.27
2023-02-15T10:28:06.671Z,24.85
2023-02-15T10:30:44.349Z,25.70
2023-02-15T10:33:26.861Z,25.88
2023-02-15T10:36:07.515Z,25.88
2023-02-15T10:38:41.778Z,25.58
2023-02-15T10:41:28.708Z,26.50
2023-02-15T10:44:21.738Z,27.35
2023-02-15T10:47:26.000Z,25.77
2023-02-15T10:50:14.747Z,26.30
2023-02-15T10:52:56.874Z,27.77
2023-02-15T10:55:35.714Z,26.75
2023-02-15T10:58:19.107Z,26.77
2023-02-15T11:00:51.757Z,27.98
2023-02-15T11:03:35.428Z,27.45
2023-02-15T11:06:07.455Z,28.25
2023-02-15T11:08:39.123Z,27.67
2023-02-15T11:11:11.619Z,27.77
2023-02-15T11:13:44.272Z,27.50
2023-02-15T11:16:18.664Z,29.08
2023-02-15T11:18:53.316Z,29.58
2023-02-15T11:21:25.016Z,28.73
2023-02-15T11:23:54.165Z,28.48
2023-02-15T11:26:29.058Z,28.77
2023-02-15T11:29:03.722Z,28.67
2023-02-15T11:31:43.520Z,29.75
2023-02-15T11:34:20.512Z,28.98
2023-02-15T11:36:51.080Z,28.58
2023-02-15T11:39:21.959Z,28.65
2023-02-15T11:41:54.884Z,27.23
2023-02-15T11:44:28.404Z,28.00
2023-02-15T11:46:56.446Z,29.05
2023-02-15T11:49:32.571Z,27.98
2023-02-15T11:52:03.162Z,28.02
2023-02-15T11:54:34.049Z,29.20
2023-02-15T11:57:07.468Z,28.92
2023-02-15T11:59:39.963Z,28.00
2023-02-15T12:02:18.326Z,27.33
2023-02-15T12:04:53.301Z,28.25
2023-02-15T12:07:26.713Z,28.55
2023-02-15T12:10:01.406Z,29.00
2023-02-15T12:12:31.823Z,28.20
2023-02-15T12:15:02.645Z,27.20
2023-02-15T12:17:34.356Z,27.60
2023-02-15T12:20:04.207Z,28.65
2023-02-15T12:22:34.554Z,28.55
2023-02-15T12:25:04.179Z,28.25
2023-02-15T12:27:34.449Z,28.38
2023-02-15T12:30:09.570Z,27.40
2023-02-15T12:32:50.019Z,26.70
2023-02-15T12:35:27.812Z,28.23
2023-02-15T12:37:58.938Z,26.83
2023-02-15T12:40:31.411Z,27.13
2023-02-15T12:43:00.323Z,27.05
2023-02-15T12:45:31.732Z,27.15
2023-02-15T12:48:17.988Z,27.08
2023-02-15T12:50:47.374Z,25.60
2023-02-15T12:53:20.081Z,27.35
2023-02-15T12:55:56.582Z,27.58
2023-02-15T12:58:26.400Z,27.67
2023-02-15T13:01:14.550Z,26.50
2023-02-15T13:03:58.447Z,27.30
2023-02-15T13:06:27.804Z,27.33
2023-02-15T13:08:58.245Z,27.40
2023-02-15T13:11:31.139Z,25.92
2023-02-15T13:14:02.902Z,26.70
2023-02-15T13:16:36.318Z,26.70
2023-02-15T13:19:08.512Z,24.98
2023-02-15T13:21:40.169Z,25.90
2023-02-15T13:24:17.947Z,26.73
2023-02-15T13:26:48.132Z,25.75
2023-02-15T13:29:22.010Z,26.17
2023-02-15T13:31:53.322Z,26.08
2023-02-15T13:34:26.309Z,25.90
2023-02-15T13:37:00.900Z,25.48
2023-02-15T13:39:36.299Z,25.85
2023-02-15T13:42:16.725Z,25.45
2023-02-15T13:45:09.142Z,25.55
2023-02-15T13:47:51.981Z,25.50
2023-02-15T13:50:45.659Z,25.05
2023-02-15T13:53:36.706Z,26.17
2023-02-15T13:56:13.733Z,25.40
2023-02-15T13:59:06.924Z,24.77
2023-02-15T14:01:42.275Z,26.50
2023-02-15T14:04:38.580Z,25.80
2023-02-15T14:07:34.391Z,25.40
2023-02-15T14:10:19.073Z,26.55
2023-02-15T14:13:03.599Z,24.90
2023-02-15T14:15:40.611Z,25.85
2023-02-15T14:18:23.127Z,25.75
2023-02-15T14:21:04.678Z,25.95
2023-02-15T14:23:44.204Z,26.30
2023-02-15T14:26:17.524Z,25.10
2023-02-15T14:28:53.186Z,24.85
2023-02-15T14:31:27.831Z,24.45
2023-02-15T14:33:58.464Z,25.50
2023-02-15T14:36:31.216Z,25.90
2023-02-15T14:39:34.770Z,25.65
2023-02-15T14:42:13.063Z,25.67
2023-02-15T14:44:45.060Z,25.73
2023-02-15T14:47:19.517Z,24.13
2023-02-15T14:49:47.614Z,25.42
2023-02-15T14:52:16.980Z,24.90
2023-02-15T14:54:59.924Z,25.73
2023-02-15T14:57:36.331Z,25.17
2023-02-15T15:00:39.022Z,24.50
2023-02-15T15:03:22.065Z,25.35
2023-02-15T15:05:52.712Z,25.02
2023-02-15T15:08:42.051Z,26.02
2023-02-15T15:11:44.644Z,26.73
2023-02-15T15:14:28.619Z,25.17
2023-02-15T15:16:56.669Z,26.13
2023-02-15T15:20:01.442Z,26.13
2023-02-15T15:22:30.691Z,26.38
2023-02-15T15:25:02.143Z,25.35
2023-02-15T15:27:46.376Z,27.17
2023-02-15T15:31:00.693Z,24.48
2023-02-15T15:34:04.490Z,24.75
2023-02-15T15:37:04.488Z,26.42
2023-02-15T15:40:15.196Z,27.08
2023-02-15T15:42:52.577Z,26.73
2023-02-15T15:45:41.047Z,25.48
2023-02-15T15:48:30.577Z,26.13
2023-02-15T15:51:06.261Z,26.08
2023-02-15T15:53:45.305Z,25.40
2023-02-15T15:56:17.379Z,29.38
2023-02-15T15:58:53.225Z,25.77
2023-02-15T16:01:28.846Z,27.40
2023-02-15T16:03:58.387Z,27.33
2023-02-15T16:06:31.607Z,32.20
2023-02-15T16:09:15.572Z,26.83
2023-02-15T16:11:44.417Z,26.67
2023-02-15T16:14:23.561Z,26.55
2023-02-15T16:16:54.364Z,44.13
2023-02-15T16:19:26.627Z,31.73
2023-02-15T16:21:56.818Z,28.73
2023-02-15T16:24:40.061Z,27.20
2023-02-15T16:27:38.794Z,27.98
2023-02-15T16:30:22.544Z,26.95
2023-02-15T16:32:51.232Z,27.83
2023-02-15T16:35:22.073Z,31.08
2023-02-15T16:37:50.155Z,28.67
2023-02-15T16:40:34.893Z,28.52
2023-02-15T16:43:07.595Z,37.00
2023-02-15T16:45:39.809Z,29.13
2023-02-15T16:48:14.698Z,32.97
2023-02-15T16:50:49.783Z,37.53
2023-02-15T16:53:23.271Z,33.53
2023-02-15T16:55:53.520Z,55.10
2023-02-15T16:58:28.287Z,37.60
2023-02-15T17:01:00.871Z,37.83
2023-02-15T17:03:29.589Z,38.33
2023-02-15T17:05:59.400Z,36.60
2023-02-15T17:08:30.790Z,35.17
2023-02-15T17:11:15.275Z,32.90
2023-02-15T17:14:15.324Z,29.77
2023-02-15T17:16:50.389Z,38.25
2023-02-15T17:19:22.960Z,32.53
2023-02-15T17:21:53.524Z,30.10
2023-02-15T17:24:26.530Z,28.88
2023-02-15T17:27:00.917Z,31.25
2023-02-15T17:29:37.791Z,34.80
2023-02-15T17:32:15.016Z,33.95
2023-02-15T17:34:51.213Z,33.22
2023-02-15T17:37:31.118Z,31.75
2023-02-15T17:40:01.279Z,36.42
2023-02-15T17:42:29.434Z,36.42
2023-02-15T17:44:57.543Z,31.27
2023-02-15T17:47:30.044Z,33.90
2023-02-15T17:49:58.522Z,31.70
2023-02-15T17:52:33.300Z,31.83
2023-02-15T17:55:25.260Z,32.30
2023-02-15T17:57:53.451Z,34.05
2023-02-15T18:00:39.444Z,33.65
2023-02-15T18:03:29.430Z,33.70
2023-02-15T18:06:16.643Z,34.20
2023-02-15T18:09:02.430Z,34.45
2023-02-15T18:11:39.291Z,31.88
2023-02-15T18:14:08.990Z,32.45
2023-02-15T18:16:40.857Z,30.02
2023-02-15T18:19:16.504Z,30.58
2023-02-15T18:21:45.318Z,30.27
2023-02-15T18:24:19.087Z,30.92
2023-02-15T18:26:47.684Z,31.02
2023-02-15T18:29:15.797Z,30.10
2023-02-15T18:31:45.669Z,29.98
2023-02-15T18:34:25.734Z,29.13
2023-02-15T18:36:54.444Z,29.58
2023-02-15T18:39:28.113Z,29.33
2023-02-15T18:41:56.317Z,29.75
2023-02-15T18:44:24.570Z,29.23
2023-02-15T18:46:52.609Z,31.02
2023-02-15T18:49:22.033Z,29.42
2023-02-15T18:51:50.200Z,29.27
2023-02-15T18:54:20.985Z,29.92
2023-02-15T18:56:54.618Z,29.67
2023-02-15T18:59:23.826Z,28.13
2023-02-15T19:01:51.999Z,28.27
2023-02-15T19:04:23.573Z,30.35
2023-02-15T19:06:52.905Z,28.00
2023-02-15T19:09:23.655Z,28.45
2023-02-15T19:11:53.964Z,28.13
2023-02-15T19:14:27.157Z,28.83
2023-02-15T19:16:56.411Z,28.90
2023-02-15T19:19:26.128Z,29.77
2023-02-15T19:21:54.660Z,29.13
2023-02-15T19:24:25.270Z,29.58
2023-02-15T19:26:53.827Z,28.55
2023-02-15T19:29:26.785Z,28.77
2023-02-15T19:31:55.149Z,29.42
2023-02-15T19:34:23.309Z,27.98
2023-02-15T19:36:56.590Z,29.05
2023-02-15T19:39:31.151Z,28.52
2023-02-15T19:41:59.191Z,28.65
2023-02-15T19:44:27.387Z,29.65
2023-02-15T19:46:55.758Z,29.13
2023-02-15T19:49:23.812Z,27.65
2023-02-15T19:51:53.281Z,30.35
2023-02-15T19:54:29.556Z,28.85
2023-02-15T19:56:58.323Z,29.33
2023-02-15T19:59:28.497Z,29.50
2023-02-15T20:01:57.519Z,29.85
2023-02-15T20:04:25.884Z,27.95
2023-02-15T20:06:57.203Z,28.40
2023-02-15T20:09:27.522Z,30.75
2023-02-15T20:11:56.436Z,31.65
2023-02-15T20:14:24.903Z,30.23
2023-02-15T20:16:53.049Z,29.98
2023-02-15T20:19:21.146Z,30.10
2023-02-15T20:21:54.550Z,29.13
2023-02-15T20:24:26.129Z,30.55
2023-02-15T20:26:54.175Z,29.95
2023-02-15T20:29:22.316Z,29.13
2023-02-15T20:31:52.222Z,28.60
2023-02-15T20:34:21.523Z,31.10
2023-02-15T20:36:49.538Z,30.67
2023-02-15T20:39:24.396Z,30.67
2023-02-15T20:41:53.855Z,30.80
2023-02-15T20:44:24.720Z,31.55
2023-02-15T20:46:55.053Z,31.52
2023-02-15T20:49:24.907Z,31.98
2023-02-15T20:51:53.816Z,31.00
2023-02-15T20:54:24.012Z,31.30
2023-02-15T20:56:54.204Z,30.70
2023-02-15T20:59:27.755Z,31.65
2023-02-15T21:01:59.452Z,31.38
2023-02-15T21:04:31.471Z,30.25
2023-02-15T21:06:59.855Z,31.02
2023-02-15T21:09:28.899Z,32.70
2023-02-15T21:12:02.250Z,32.25
2023-02-15T21:14:30.421Z,32.55
2023-02-15T21:16:58.539Z,31.83
2023-02-15T21:19:26.562Z,31.77
2023-02-15T21:21:55.079Z,31.30
2023-02-15T21:24:25.521Z,32.58
2023-02-15T21:26:55.089Z,32.85
2023-02-15T21:29:26.378Z,32.65
2023-02-15T21:31:54.952Z,32.42
2023-02-15T21:34:23.120Z,33.50
2023-02-15T21:36:51.762Z,34.10
2023-02-15T21:39:22.195Z,31.58
2023-02-15T21:42:08.967Z,33.70
2023-02-15T21:44:56.147Z,33.70
2023-02-15T21:47:43.969Z,33.78
2023-02-15T21:50:31.697Z,35.10
2023-02-15T21:53:00.522Z,31.92
2023-02-15T21:55:28.702Z,34.28
2023-02-15T21:58:03.735Z,33.92
2023-02-15T22:00:33.914Z,33.30
2023-02-15T22:03:02.530Z,33.92
2023-02-15T22:05:32.195Z,33.85
2023-02-15T22:08:00.944Z,35.40
2023-02-15T22:10:31.899Z,34.22
2023-02-15T22:13:01.610Z,34.63
2023-02-15T22:15:35.723Z,33.47
2023-02-15T22:18:04.233Z,34.70
2023-02-15T22:20:32.399Z,32.42
2023-02-15T22:23:00.485Z,34.35
2023-02-15T22:25:28.534Z,32.97
2023-02-15T22:27:56.790Z,34.38
2023-02-15T22:30:28.420Z,34.40
2023-02-15T22:32:59.610Z,33.65
2023-02-15T22:35:29.572Z,32.85
2023-02-15T22:37:58.045Z,33.72
2023-02-15T22:40:30.300Z,34.20
2023-02-15T22:43:00.833Z,33.60
2023-02-15T22:45:29.183Z,33.83
2023-02-15T22:48:00.916Z,33.50
2023-02-15T22:50:31.104Z,35.92
2023-02-15T22:53:01.306Z,34.92
2023-02-15T22:55:31.877Z,33.58
2023-02-15T22:58:00.322Z,34.83
2023-02-15T23:00:32.383Z,35.05
2023-02-15T23:03:02.258Z,34.53
2023-02-15T23:05:32.368Z,34.72
2023-02-15T23:08:00.410Z,34.75
2023-02-15T23:10:30.231Z,33.72
2023-02-15T23:13:17.200Z,33.95
2023-02-15T23:15:48.752Z,34.95
2023-02-15T23:18:20.607Z,34.83
2023-02-15T23:20:51.792Z,36.35
2023-02-15T23:23:24.210Z,34.40
2023-02-15T23:25:52.285Z,33.88
2023-02-15T23:28:23.288Z,33.75
2023-02-15T23:30:51.690Z,34.15
2023-02-15T23:33:25.905Z,34.17
2023-02-15T23:35:53.996Z,35.33
2023-02-15T23:38:24.839Z,34.60
2023-02-15T23:41:14.275Z,34.53
2023-02-15T23:43:45.571Z,34.15
2023-02-15T23:46:26.716Z,34.67
2023-02-15T23:48:57.091Z,33.80
2023-02-15T23:51:30.502Z,35.78
2023-02-15T23:53:59.141Z,34.17
2023-02-15T23:56:27.486Z,33.28
2023-02-15T23:58:55.664Z,35.72
